Time;durP1;ratioP1;P1;durP2;ratioP2;P2;SDS_P1;SDS_P2;PMS_P1;PMS_P2;Temp;Humidity;BMP_temperature;BMP_pressure;BME280_temperature;BME280_humidity;BME280_pressure;Samples;Min_cycle;Max_cycle;Signal;HPM_P1;HPM_P2
2023/01/11 00:00:35;;;;;;;6.90;2.90;;;;;;;-16.76;100.00;102457.59;104908;1254;74783;-57
2023/01/11 00:03:03;;;;;;;6.70;2.90;;;;;;;-16.78;100.00;102454.85;105262;1259;69451;-59
2023/01/11 00:05:30;;;;;;;7.40;2.60;;;;;;;-16.81;100.00;102453.94;104938;1262;74143;-57
2023/01/11 00:07:57;;;;;;;5.70;2.80;;;;;;;-16.84;100.00;102450.70;105165;1260;63135;-58
2023/01/11 00:10:24;;;;;;;4.90;2.40;;;;;;;-16.87;100.00;102441.14;105313;1254;61767;-58
2023/01/11 00:12:51;;;;;;;10.00;2.80;;;;;;;-16.89;100.00;102449.88;105021;1255;74990;-59
2023/01/11 00:15:18;;;;;;;23.70;4.30;;;;;;;-16.92;100.00;102450.29;104925;1261;69239;-60
2023/01/11 00:17:46;;;;;;;4.80;2.20;;;;;;;-16.95;100.00;102446.73;105061;1260;74159;-58
2023/01/11 00:20:13;;;;;;;5.40;2.00;;;;;;;-16.97;100.00;102446.02;104933;1260;64429;-59
2023/01/11 00:22:40;;;;;;;9.70;2.70;;;;;;;-16.99;100.00;102443.45;105220;1256;61728;-59
2023/01/11 00:25:07;;;;;;;6.40;3.30;;;;;;;-17.01;100.00;102447.38;104899;1254;76176;-62
2023/01/11 00:27:34;;;;;;;5.20;2.10;;;;;;;-17.03;100.00;102448.17;105302;1260;68505;-56
2023/01/11 00:30:01;;;;;;;8.50;3.50;;;;;;;-17.04;100.00;102445.66;105101;1257;72697;-58
2023/01/11 00:32:28;;;;;;;5.80;2.50;;;;;;;-17.04;100.00;102444.31;105444;1254;64458;-62
2023/01/11 00:34:56;;;;;;;7.30;2.70;;;;;;;-17.04;100.00;102439.33;105250;1255;62813;-60
2023/01/11 00:37:23;;;;;;;6.30;2.00;;;;;;;-17.04;100.00;102444.81;105332;1254;75056;-59
2023/01/11 00:39:51;;;;;;;6.30;2.90;;;;;;;-17.04;100.00;102449.45;105187;1260;67514;-59
2023/01/11 00:47:56;;;;;;;5.90;2.60;;;;;;;-17.06;100.00;102434.61;105190;1254;61576;-58
2023/01/11 00:50:24;;;;;;;5.40;2.70;;;;;;;-17.05;100.00;102434.80;105290;1259;76532;-59
2023/01/11 00:52:51;;;;;;;6.80;2.60;;;;;;;-17.05;100.00;102431.80;105459;1259;68584;-61
2023/01/11 00:55:18;;;;;;;6.60;2.50;;;;;;;-17.05;100.00;102426.16;104999;1254;75430;-57
2023/01/11 00:57:45;;;;;;;8.80;3.60;;;;;;;-17.06;100.00;102415.48;105040;1262;63088;-58
2023/01/11 01:00:13;;;;;;;4.80;2.10;;;;;;;-17.06;100.00;102417.82;105298;1260;61401;-61
2023/01/11 01:02:40;;;;;;;4.90;2.10;;;;;;;-17.05;100.00;102421.50;104921;1259;73961;-59
2023/01/11 01:05:07;;;;;;;6.50;2.90;;;;;;;-17.05;100.00;102424.50;105245;1254;69544;-60
2023/01/11 01:07:35;;;;;;;6.50;2.60;;;;;;;-17.06;100.00;102425.31;105158;1260;75047;-58
2023/01/11 01:10:03;;;;;;;6.10;2.10;;;;;;;-17.06;100.00;102420.98;105197;1260;63692;-61
2023/01/11 01:15:16;;;;;;;7.20;2.90;;;;;;;-17.08;100.00;102432.75;105183;1254;75218;-59
2023/01/11 01:17:44;;;;;;;5.60;2.10;;;;;;;-17.08;100.00;102433.08;105216;1260;70018;-59
2023/01/11 01:20:11;;;;;;;8.40;2.70;;;;;;;-17.08;100.00;102437.73;105420;1257;74122;-61
2023/01/11 01:22:39;;;;;;;4.10;2.20;;;;;;;-17.07;100.00;102432.59;105529;1262;64914;-61
2023/01/11 01:25:06;;;;;;;4.40;2.10;;;;;;;-17.08;100.00;102429.09;104996;1259;61444;-59
2023/01/11 01:27:33;;;;;;;6.70;2.00;;;;;;;-17.07;100.00;102424.76;105316;1255;75321;-57
2023/01/11 01:30:01;;;;;;;7.90;2.40;;;;;;;-17.07;100.00;102428.59;105246;1261;68532;-58
2023/01/11 01:32:28;;;;;;;6.80;2.40;;;;;;;-17.07;100.00;102429.27;105304;1263;74009;-61
2023/01/11 01:34:55;;;;;;;5.10;2.20;;;;;;;-17.07;100.00;102433.10;105381;1254;63436;-58
2023/01/11 01:37:22;;;;;;;8.10;2.40;;;;;;;-17.05;100.00;102427.49;105323;1261;61728;-59
2023/01/11 01:39:49;;;;;;;7.00;2.60;;;;;;;-17.04;100.00;102429.70;105375;1254;75284;-58
2023/01/11 01:42:18;;;;;;;7.30;2.80;;;;;;;-17.04;100.00;102430.35;105558;1263;68022;-58
2023/01/11 01:45:02;;;;;;;7.00;1.80;;;;;;;-17.04;100.00;102429.20;105489;1260;74009;-61
2023/01/11 01:47:48;;;;;;;7.90;2.40;;;;;;;-17.03;100.00;102433.36;105304;1260;64491;-58
2023/01/11 01:50:21;;;;;;;5.60;2.20;;;;;;;-17.04;100.00;102437.35;105419;1255;62520;-61
2023/01/11 01:52:50;;;;;;;7.60;3.00;;;;;;;-17.03;100.00;102435.36;105172;1254;76541;-58
2023/01/11 01:55:33;;;;;;;6.40;2.20;;;;;;;-17.03;100.00;102430.55;105127;1254;68321;-59
2023/01/11 01:58:01;;;;;;;8.80;2.50;;;;;;;-17.02;100.00;102430.23;105311;1257;75210;-60
2023/01/11 02:00:28;;;;;;;7.10;2.10;;;;;;;-17.02;100.00;102434.72;105320;1254;63309;-58
2023/01/11 02:02:56;;;;;;;6.60;2.70;;;;;;;-17.01;100.00;102436.56;105247;1260;61020;-57
2023/01/11 02:05:23;;;;;;;5.30;2.30;;;;;;;-17.01;100.00;102431.09;105232;1257;76529;-58
2023/01/11 02:07:53;;;;;;;8.00;1.90;;;;;;;-17.01;100.00;102441.73;105722;1259;68985;-61
2023/01/11 02:10:21;;;;;;;5.70;2.50;;;;;;;-17.00;100.00;102438.59;105185;1254;75275;-58
2023/01/11 02:12:59;;;;;;;3.80;1.40;;;;;;;-16.99;100.00;102433.31;105395;1260;64405;-57
2023/01/11 02:15:26;;;;;;;6.00;2.10;;;;;;;-16.98;100.00;102437.48;105340;1260;62796;-58
2023/01/11 02:17:54;;;;;;;7.30;2.70;;;;;;;-16.99;100.00;102434.65;105357;1254;76148;-60
2023/01/11 02:20:26;;;;;;;4.80;2.50;;;;;;;-17.00;100.00;102426.13;105078;1260;69259;-59
2023/01/11 02:23:17;;;;;;;5.10;2.10;;;;;;;-17.01;100.00;102428.59;105230;1260;74076;-59
2023/01/11 02:25:45;;;;;;;14.30;3.10;;;;;;;-17.00;100.00;102430.30;105326;1258;63649;-60
2023/01/11 02:28:31;;;;;;;8.30;2.80;;;;;;;-17.00;100.00;102435.29;105104;1259;61425;-60
2023/01/11 02:31:05;;;;;;;9.00;3.00;;;;;;;-17.01;100.00;102435.58;105356;1257;75300;-59
2023/01/11 02:33:38;;;;;;;8.30;2.60;;;;;;;-17.00;100.00;102433.29;105203;1260;69688;-58
2023/01/11 02:36:44;;;;;;;4.70;1.50;;;;;;;-16.98;100.00;102437.83;105274;1261;74036;-59
2023/01/11 02:39:49;;;;;;;4.20;1.40;;;;;;;-16.97;100.00;102427.38;105143;1259;63307;-59
2023/01/11 02:45:28;;;;;;;6.00;2.00;;;;;;;-16.97;100.00;102431.54;105281;1258;76288;-58
2023/01/11 02:48:01;;;;;;;6.00;2.60;;;;;;;-16.97;100.00;102433.70;105391;1260;70076;-60
2023/01/11 02:50:37;;;;;;;5.40;1.90;;;;;;;-16.96;100.00;102439.88;105029;1263;73979;-59
2023/01/11 02:53:24;;;;;;;2.90;1.40;;;;;;;-16.96;100.00;102437.91;105253;1254;64220;-63
2023/01/11 02:55:54;;;;;;;4.80;1.90;;;;;;;-16.93;100.00;102434.31;104963;1261;61635;-60
2023/01/11 02:58:22;;;;;;;4.90;2.30;;;;;;;-16.91;100.00;102432.05;105278;1260;75228;-60
2023/01/11 03:00:49;;;;;;;5.20;1.80;;;;;;;-16.89;100.00;102437.27;105334;1263;68441;-60
2023/01/11 03:03:18;;;;;;;4.80;1.90;;;;;;;-16.89;100.00;102441.07;105387;1260;75673;-58
2023/01/11 03:06:10;;;;;;;7.50;1.80;;;;;;;-16.88;100.00;102439.10;105297;1260;64483;-59
2023/01/11 03:09:03;;;;;;;5.80;2.10;;;;;;;-16.88;100.00;102440.45;105505;1260;61785;-59
2023/01/11 03:14:49;;;;;;;4.70;2.00;;;;;;;-16.82;100.00;102432.12;105073;1264;69106;-60
2023/01/11 03:17:27;;;;;;;5.30;1.90;;;;;;;-16.79;100.00;102442.19;105053;1255;75013;-58
2023/01/11 03:20:25;;;;;;;3.70;1.40;;;;;;;-16.78;100.00;102442.88;105057;1254;64518;-59
2023/01/11 03:23:18;;;;;;;3.90;1.30;;;;;;;-16.77;100.00;102443.75;105125;1263;61613;-59
2023/01/11 03:26:15;;;;;;;4.00;1.70;;;;;;;-16.73;100.00;102443.01;105157;1261;76228;-59
2023/01/11 03:28:52;;;;;;;3.50;1.40;;;;;;;-16.72;100.00;102435.88;105270;1260;67832;-59
2023/01/11 03:31:21;;;;;;;5.00;1.60;;;;;;;-16.69;100.00;102430.14;105217;1262;73273;-59
2023/01/11 03:34:03;;;;;;;4.70;1.70;;;;;;;-16.67;100.00;102433.68;105185;1256;62680;-57
2023/01/11 03:36:38;;;;;;;3.30;1.40;;;;;;;-16.66;100.00;102427.55;105381;1254;60543;-57
2023/01/11 03:39:15;;;;;;;3.70;1.60;;;;;;;-16.64;100.00;102429.44;105255;1254;75496;-59
2023/01/11 03:41:42;;;;;;;5.90;2.70;;;;;;;-16.63;100.00;102428.80;105691;1260;69380;-58
2023/01/11 03:44:09;;;;;;;8.10;2.10;;;;;;;-16.62;100.00;102425.00;104901;1258;74124;-58
2023/01/11 03:46:43;;;;;;;10.40;2.40;;;;;;;-16.61;100.00;102423.04;105303;1260;64204;-57
2023/01/11 03:49:14;;;;;;;5.60;2.00;;;;;;;-16.59;100.00;102429.41;105161;1254;61533;-58
2023/01/11 03:51:43;;;;;;;3.80;2.00;;;;;;;-16.58;100.00;102433.11;105335;1261;76105;-58
2023/01/11 03:54:13;;;;;;;5.90;2.10;;;;;;;-16.56;100.00;102439.47;105435;1254;69737;-59
2023/01/11 03:56:59;;;;;;;4.30;1.90;;;;;;;-16.54;100.00;102437.05;105950;1257;74953;-61
2023/01/11 03:59:26;;;;;;;3.60;1.70;;;;;;;-16.52;100.00;102437.77;105732;1260;63402;-62
2023/01/11 04:01:54;;;;;;;6.10;2.20;;;;;;;-16.50;100.00;102438.48;105521;1254;62839;-57
2023/01/11 04:04:21;;;;;;;4.20;1.60;;;;;;;-16.48;100.00;102433.69;105554;1263;76195;-61
2023/01/11 04:06:49;;;;;;;4.70;1.70;;;;;;;-16.47;100.00;102437.55;105505;1260;68504;-58
2023/01/11 04:09:16;;;;;;;6.60;2.00;;;;;;;-16.46;100.00;102440.59;105197;1261;74022;-60
2023/01/11 04:11:43;;;;;;;4.30;1.90;;;;;;;-16.45;100.00;102444.60;105403;1262;63356;-58
2023/01/11 04:14:11;;;;;;;5.10;2.10;;;;;;;-16.45;100.00;102439.94;105336;1263;61392;-58
2023/01/11 04:16:38;;;;;;;6.80;2.30;;;;;;;-16.45;100.00;102440.27;105530;1258;76360;-60
2023/01/11 04:19:05;;;;;;;4.50;1.70;;;;;;;-16.44;100.00;102432.14;105159;1261;69340;-58
2023/01/11 04:21:32;;;;;;;6.10;2.50;;;;;;;-16.42;100.00;102433.35;105553;1260;74846;-58
2023/01/11 04:23:59;;;;;;;4.20;1.40;;;;;;;-16.40;100.00;102434.56;105189;1257;62754;-60
2023/01/11 04:26:26;;;;;;;4.80;1.70;;;;;;;-16.38;100.00;102434.13;105399;1260;61620;-60
2023/01/11 04:28:53;;;;;;;6.30;2.10;;;;;;;-16.36;100.00;102431.18;105603;1260;76388;-62
2023/01/11 04:31:20;;;;;;;7.80;2.20;;;;;;;-16.33;100.00;102429.27;105797;1262;68233;-61
2023/01/11 04:33:47;;;;;;;4.40;1.50;;;;;;;-16.32;100.00;102430.98;105302;1260;74298;-60
2023/01/11 04:36:15;;;;;;;3.70;1.50;;;;;;;-16.33;100.00;102428.95;105658;1258;64103;-59
2023/01/11 04:38:42;;;;;;;5.40;1.90;;;;;;;-16.33;100.00;102422.61;105646;1255;61530;-59
2023/01/11 04:43:55;;;;;;;6.00;2.10;;;;;;;-16.31;100.00;102420.16;105212;1260;68356;-61
2023/01/11 04:46:23;;;;;;;4.10;1.90;;;;;;;-16.31;100.00;102421.35;105540;1260;74025;-61
2023/01/11 04:48:51;;;;;;;4.20;1.70;;;;;;;-16.30;100.00;102417.36;105223;1263;63079;-58
2023/01/11 04:51:18;;;;;;;6.50;2.50;;;;;;;-16.26;100.00;102426.95;105419;1257;61948;-61
2023/01/11 04:53:47;;;;;;;4.70;1.40;;;;;;;-16.24;100.00;102425.34;105022;1263;76614;-58
2023/01/11 04:56:15;;;;;;;4.80;1.40;;;;;;;-16.22;100.00;102431.05;105206;1260;68340;-58
2023/01/11 04:58:42;;;;;;;7.10;1.90;;;;;;;-16.20;100.00;102435.42;105262;1260;75164;-59
2023/01/11 05:01:10;;;;;;;5.90;1.90;;;;;;;-16.18;100.00;102436.81;105157;1260;63092;-58
2023/01/11 05:03:37;;;;;;;7.30;1.40;;;;;;;-16.16;100.00;102436.37;105268;1254;62344;-61
2023/01/11 05:06:06;;;;;;;4.50;1.30;;;;;;;-16.16;100.00;102429.20;105366;1255;76312;-58
2023/01/11 05:08:33;;;;;;;4.80;1.40;;;;;;;-16.16;100.00;102435.72;105512;1260;68799;-59
2023/01/11 05:11:02;;;;;;;4.60;1.60;;;;;;;-16.15;100.00;102433.73;105394;1267;74077;-58
2023/01/11 05:13:41;;;;;;;3.90;1.50;;;;;;;-16.13;100.00;102432.61;105406;1260;64087;-62
2023/01/11 05:16:22;;;;;;;7.50;2.30;;;;;;;-16.11;100.00;102431.16;105204;1266;61501;-58
2023/01/11 05:18:58;;;;;;;5.10;2.10;;;;;;;-16.09;100.00;102428.88;105203;1257;76269;-62
2023/01/11 05:21:30;;;;;;;3.80;1.60;;;;;;;-16.07;100.00;102420.45;105191;1262;69063;-58
2023/01/11 05:23:58;;;;;;;7.50;1.70;;;;;;;-16.05;100.00;102428.00;105047;1261;74841;-58
2023/01/11 05:26:35;;;;;;;6.40;2.00;;;;;;;-16.02;100.00;102436.71;105210;1260;64267;-60
2023/01/11 05:29:14;;;;;;;5.00;2.00;;;;;;;-15.93;100.00;102433.27;104952;1254;62941;-58
2023/01/11 05:31:42;;;;;;;4.80;2.10;;;;;;;-15.77;100.00;102426.99;105161;1260;76228;-59
2023/01/11 05:34:11;;;;;;;10.10;2.20;;;;;;;-15.57;100.00;102425.63;105293;1261;69696;-59
2023/01/11 05:36:38;;;;;;;7.40;3.20;;;;;;;-15.33;100.00;102425.82;105170;1260;73853;-59
2023/01/11 05:39:05;;;;;;;5.80;2.50;;;;;;;-15.08;100.00;102426.02;105185;1260;63441;-58
2023/01/11 05:41:32;;;;;;;5.90;2.10;;;;;;;-14.82;100.00;102427.56;105273;1254;62279;-58
2023/01/11 05:46:45;;;;;;;7.20;1.70;;;;;;;-14.29;100.00;102425.20;104993;1260;69887;-58
2023/01/11 05:49:13;;;;;;;4.40;2.00;;;;;;;-14.05;100.00;102432.31;105238;1260;74194;-59
2023/01/11 05:51:41;;;;;;;6.90;2.00;;;;;;;-13.81;100.00;102427.19;105114;1255;63274;-58
2023/01/11 05:54:10;;;;;;;7.10;2.00;;;;;;;-13.60;100.00;102422.50;105174;1255;62466;-59
2023/01/11 05:56:38;;;;;;;5.20;1.80;;;;;;;-13.38;100.00;102424.01;105314;1254;73974;-59
2023/01/11 05:59:05;;;;;;;6.00;2.30;;;;;;;-13.21;100.00;102425.05;105238;1257;68165;-59
2023/01/11 06:01:33;;;;;;;6.50;2.30;;;;;;;-13.06;100.00;102428.42;105195;1260;73777;-59
2023/01/11 06:04:00;;;;;;;6.00;2.50;;;;;;;-12.89;100.00;102432.49;105270;1260;63169;-60
2023/01/11 06:06:27;;;;;;;5.80;1.90;;;;;;;-12.71;100.00;102425.67;104972;1260;60834;-62
2023/01/11 06:08:55;;;;;;;4.60;2.10;;;;;;;-12.57;100.00;102429.02;104941;1260;76081;-59
2023/01/11 06:11:22;;;;;;;6.00;2.60;;;;;;;-12.44;100.00;102435.34;105011;1261;70107;-58
2023/01/11 06:13:49;;;;;;;4.10;1.60;;;;;;;-12.37;100.00;102438.78;105135;1258;73596;-58
2023/01/11 06:16:17;;;;;;;5.10;1.60;;;;;;;-12.28;100.00;102431.50;105209;1260;63442;-60
2023/01/11 06:18:46;;;;;;;6.60;2.10;;;;;;;-12.20;100.00;102432.26;105505;1254;62408;-62
2023/01/11 06:21:14;;;;;;;4.80;2.20;;;;;;;-12.13;100.00;102433.33;105203;1260;74006;-58
2023/01/11 06:23:44;;;;;;;5.20;2.00;;;;;;;-12.01;100.00;102439.65;105181;1267;69372;-58
2023/01/11 06:26:14;;;;;;;3.70;1.30;;;;;;;-11.89;100.00;102433.88;105298;1260;73866;-58
2023/01/11 06:28:41;;;;;;;7.20;2.70;;;;;;;-11.77;100.00;102438.47;104989;1255;64247;-58
2023/01/11 06:31:08;;;;;;;6.30;2.30;;;;;;;-11.64;100.00;102437.41;105126;1260;60596;-59
2023/01/11 06:34:22;;;;;;;7.70;2.40;;;;;;;-11.43;100.00;102426.14;101856;1292;600883;-64
2023/01/11 06:36:49;;;;;;;5.60;2.80;;;;;;;-11.24;100.00;102427.77;104501;1269;61994;-59
2023/01/11 06:39:17;;;;;;;3.50;1.70;;;;;;;-11.09;100.00;102429.70;104606;1272;61106;-60
2023/01/11 06:41:44;;;;;;;8.00;2.30;;;;;;;-11.05;100.00;102418.14;104475;1266;74625;-59
2023/01/11 06:44:11;;;;;;;4.40;2.10;;;;;;;-11.00;100.00;102419.50;104362;1265;68504;-59
2023/01/11 06:46:38;;;;;;;5.10;1.60;;;;;;;-10.89;100.00;102417.21;104590;1267;75353;-60
2023/01/11 06:49:06;;;;;;;4.00;1.80;;;;;;;-10.79;100.00;102415.58;104597;1268;192148;-61
2023/01/11 06:51:33;;;;;;;7.20;2.00;;;;;;;-10.74;100.00;102421.30;104725;1268;61634;-60
2023/01/11 06:54:00;;;;;;;5.70;2.10;;;;;;;-10.72;100.00;102414.92;104781;1265;74690;-59
2023/01/11 06:56:27;;;;;;;3.70;1.70;;;;;;;-10.70;100.00;102418.96;104811;1263;67765;-61
2023/01/11 06:58:54;;;;;;;5.40;2.10;;;;;;;-10.68;100.00;102415.09;104731;1268;75068;-60
2023/01/11 07:01:23;;;;;;;5.60;2.20;;;;;;;-10.59;100.00;102424.04;105029;1268;63110;-63
2023/01/11 07:03:51;;;;;;;4.20;1.60;;;;;;;-10.56;100.00;102423.55;104796;1265;63519;-61
2023/01/11 07:06:18;;;;;;;5.80;2.40;;;;;;;-10.50;100.00;102419.87;105026;1264;75103;-61
2023/01/11 07:08:45;;;;;;;7.50;2.30;;;;;;;-10.35;100.00;102422.94;104354;1268;68269;-59
2023/01/11 07:11:12;;;;;;;5.30;2.20;;;;;;;-10.23;100.00;102421.24;104931;1268;74104;-61
2023/01/11 07:13:40;;;;;;;7.10;2.90;;;;;;;-10.13;100.00;102420.23;104838;1263;64088;-60
2023/01/11 07:16:07;;;;;;;7.00;3.40;;;;;;;-10.03;100.00;102414.02;104401;1264;63169;-60
2023/01/11 07:18:34;;;;;;;5.90;2.20;;;;;;;-9.78;100.00;102409.84;105030;1264;74341;-63
2023/01/11 07:21:01;;;;;;;5.00;2.00;;;;;;;-9.55;100.00;102407.29;104671;1268;68169;-62
2023/01/11 07:23:28;;;;;;;5.40;2.10;;;;;;;-9.39;99.91;102407.27;104802;1263;75299;-60
2023/01/11 07:25:55;;;;;;;9.20;2.50;;;;;;;-9.28;98.25;102408.42;104753;1264;63326;-62
2023/01/11 07:28:23;;;;;;;5.70;2.30;;;;;;;-9.21;95.76;102410.93;104468;1268;61560;-60
2023/01/11 07:30:50;;;;;;;5.40;2.00;;;;;;;-9.13;93.50;102406.36;104687;1258;73514;-61
2023/01/11 07:33:25;;;;;;;7.20;2.10;;;;;;;-9.13;89.76;102414.27;105001;1256;69308;-60
2023/01/11 07:35:53;;;;;;;5.70;1.70;;;;;;;-9.20;88.54;102414.80;105175;1257;73984;-63
2023/01/11 07:38:20;;;;;;;6.20;2.00;;;;;;;-9.20;88.43;102413.78;104781;1259;63721;-60
2023/01/11 07:40:47;;;;;;;6.00;2.70;;;;;;;-9.14;87.53;102415.46;104810;1256;62738;-61
2023/01/11 07:43:17;;;;;;;4.60;2.00;;;;;;;-9.09;87.97;102417.80;105159;1256;74353;-62
2023/01/11 07:45:47;;;;;;;4.60;2.30;;;;;;;-8.95;87.74;102412.02;105071;1261;68793;-60
2023/01/11 07:48:23;;;;;;;4.80;2.20;;;;;;;-8.88;85.89;102418.07;105025;1259;75994;-60
2023/01/11 07:50:51;;;;;;;5.70;2.20;;;;;;;-8.85;85.38;102425.14;105032;1257;62666;-61
2023/01/11 07:53:18;;;;;;;6.30;2.60;;;;;;;-8.81;84.18;102421.25;105159;1256;61509;-61
2023/01/11 07:55:46;;;;;;;7.20;2.00;;;;;;;-8.77;83.74;102424.09;105258;1256;75056;-62
2023/01/11 07:58:13;;;;;;;4.30;2.10;;;;;;;-8.79;82.30;102426.29;105436;1257;69784;-61
2023/01/11 08:00:40;;;;;;;8.60;2.30;;;;;;;-8.84;82.12;102422.27;105187;1257;72804;-61
2023/01/11 08:03:08;;;;;;;4.80;1.90;;;;;;;-8.80;83.05;102419.05;104992;1260;62672;-60
2023/01/11 08:05:35;;;;;;;5.20;2.20;;;;;;;-8.71;82.20;102422.55;105032;1257;62482;-61
2023/01/11 08:08:03;;;;;;;6.40;2.80;;;;;;;-8.65;83.28;102413.75;105080;1256;73088;-63
2023/01/11 08:10:30;;;;;;;7.40;2.30;;;;;;;-8.50;84.34;102411.31;104706;1259;68525;-60
2023/01/11 08:15:43;;;;;;;6.40;2.70;;;;;;;-8.38;80.60;102403.83;105680;1257;63738;-61
2023/01/11 08:18:11;;;;;;;6.80;2.20;;;;;;;-8.33;79.37;102412.55;105439;1253;62754;-61
2023/01/11 08:20:38;;;;;;;3.40;1.60;;;;;;;-8.37;78.53;102394.70;105528;1252;75455;-61
2023/01/11 08:23:07;;;;;;;7.10;2.60;;;;;;;-8.36;78.28;102402.10;105558;1253;69466;-60
2023/01/11 08:25:35;;;;;;;5.80;2.30;;;;;;;-8.33;78.23;102398.89;106175;1258;76788;-63
2023/01/11 08:28:03;;;;;;;6.60;2.20;;;;;;;-8.36;76.81;102399.58;105156;1257;62837;-63
2023/01/11 08:30:31;;;;;;;4.40;2.00;;;;;;;-8.38;77.61;102399.45;105516;1253;63228;-60
2023/01/11 08:32:59;;;;;;;5.30;2.20;;;;;;;-8.35;77.49;102403.44;106146;1254;75339;-61
2023/01/11 08:35:27;;;;;;;7.40;2.40;;;;;;;-8.37;76.93;102403.81;107147;1253;70090;-60
2023/01/11 08:37:54;;;;;;;6.40;2.70;;;;;;;-8.38;77.75;102399.61;105491;1255;75261;-66
2023/01/11 08:40:21;;;;;;;6.40;2.50;;;;;;;-8.31;79.57;102400.05;105164;1257;62868;-61
2023/01/11 08:42:56;;;;;;;6.10;2.00;;;;;;;-8.19;79.68;102398.79;105398;1257;61632;-60
2023/01/11 08:45:24;;;;;;;7.40;3.40;;;;;;;-8.13;77.35;102400.43;105322;1258;74397;-61
2023/01/11 08:47:52;;;;;;;8.20;2.80;;;;;;;-8.14;78.97;102396.23;105591;1258;69540;-64
2023/01/11 08:50:20;;;;;;;6.80;3.10;;;;;;;-8.03;79.89;102395.98;105288;1259;74093;-60
2023/01/11 08:52:49;;;;;;;7.60;3.40;;;;;;;-7.96;78.68;102392.89;105305;1258;61620;-61
2023/01/11 08:55:17;;;;;;;13.10;5.50;;;;;;;-7.92;79.36;102395.05;105680;1255;61558;-63
2023/01/11 08:57:45;;;;;;;9.00;4.30;;;;;;;-7.82;79.57;102387.20;105694;1258;75556;-65
2023/01/11 09:00:13;;;;;;;6.80;3.40;;;;;;;-7.75;78.07;102386.48;105210;1253;70266;-63
2023/01/11 09:02:40;;;;;;;8.10;4.00;;;;;;;-7.78;77.78;102382.61;105558;1253;73516;-62
2023/01/11 09:05:08;;;;;;;5.90;2.90;;;;;;;-7.77;78.50;102381.08;105332;1258;62615;-63
2023/01/11 09:07:35;;;;;;;6.80;2.50;;;;;;;-7.73;79.24;102370.75;105523;1258;62743;-65
2023/01/11 09:10:03;;;;;;;9.50;2.80;;;;;;;-7.64;81.10;102370.83;105522;1255;76013;-64
2023/01/11 09:12:31;;;;;;;8.20;2.50;;;;;;;-7.52;81.69;102371.57;105489;1256;70187;-62
2023/01/11 09:14:58;;;;;;;5.40;2.30;;;;;;;-7.46;80.14;102365.24;105645;1253;73883;-64
2023/01/11 09:17:26;;;;;;;5.70;2.10;;;;;;;-7.50;80.04;102363.59;105346;1257;63561;-61
2023/01/11 09:19:53;;;;;;;4.80;2.30;;;;;;;-7.49;81.17;102362.41;105200;1257;61893;-66
2023/01/11 09:22:21;;;;;;;6.10;2.40;;;;;;;-7.47;81.28;102364.75;105593;1255;75332;-65
2023/01/11 09:24:48;;;;;;;6.70;2.80;;;;;;;-7.42;83.55;102367.58;105308;1253;70004;-61
2023/01/11 09:27:15;;;;;;;5.90;2.60;;;;;;;-7.29;83.99;102366.77;105339;1257;74085;-62
2023/01/11 09:29:42;;;;;;;5.80;2.60;;;;;;;-7.24;84.24;102359.77;105145;1253;62529;-61
2023/01/11 09:32:09;;;;;;;4.50;1.60;;;;;;;-7.12;86.28;102355.58;105962;1254;63308;-63
2023/01/11 09:34:38;;;;;;;6.80;2.60;;;;;;;-7.04;85.09;102351.94;105589;1258;75537;-61
2023/01/11 09:37:05;;;;;;;5.00;1.70;;;;;;;-7.08;86.14;102339.65;105647;1258;69579;-62
2023/01/11 09:39:33;;;;;;;9.30;4.10;;;;;;;-7.08;86.76;102337.45;105673;1254;75271;-61
2023/01/11 09:42:20;;;;;;;9.60;3.10;;;;;;;-7.11;88.72;102330.73;105759;1258;62340;-62
2023/01/11 09:44:49;;;;;;;7.10;2.70;;;;;;;-7.08;90.94;102328.00;105699;1258;61496;-63
2023/01/11 09:47:19;;;;;;;8.30;2.40;;;;;;;-7.03;92.66;102322.35;105703;1253;74183;-60
2023/01/11 09:49:51;;;;;;;6.60;2.50;;;;;;;-6.96;93.92;102327.16;105646;1258;68540;-60
2023/01/11 09:52:18;;;;;;;9.10;2.70;;;;;;;-7.00;95.40;102317.41;105445;1253;75334;-60
2023/01/11 09:54:46;;;;;;;7.90;3.50;;;;;;;-6.95;99.33;102314.48;105648;1256;63491;-60
2023/01/11 09:57:36;;;;;;;8.20;3.20;;;;;;;-6.75;100.00;102323.33;105667;1253;62544;-61
2023/01/11 10:00:11;;;;;;;6.70;2.70;;;;;;;-6.61;100.00;102319.08;105238;1258;75190;-60
2023/01/11 10:03:11;;;;;;;6.20;2.40;;;;;;;-6.58;99.18;102318.19;105284;1256;68284;-61
2023/01/11 10:05:48;;;;;;;8.80;3.30;;;;;;;-6.59;99.00;102309.91;105373;1258;75517;-60
2023/01/11 10:08:46;;;;;;;8.10;2.80;;;;;;;-6.58;98.83;102304.33;105720;1258;63867;-61
2023/01/11 10:11:39;;;;;;;7.60;3.20;;;;;;;-6.67;99.85;102307.33;105528;1253;63028;-61
2023/01/11 10:14:29;;;;;;;5.90;2.50;;;;;;;-6.71;100.00;102303.83;105459;1257;74998;-60
2023/01/11 10:17:31;;;;;;;8.10;3.70;;;;;;;-6.69;100.00;102295.86;105482;1258;69229;-60
2023/01/11 10:20:33;;;;;;;8.90;3.80;;;;;;;-6.55;100.00;102297.52;105065;1253;75304;-61
2023/01/11 10:23:05;;;;;;;11.80;2.90;;;;;;;-6.39;100.00;102290.48;105632;1253;63423;-60
2023/01/11 10:25:40;;;;;;;6.80;2.70;;;;;;;-6.27;100.00;102287.24;105287;1256;61916;-58
2023/01/11 10:28:26;;;;;;;6.70;2.90;;;;;;;-6.29;100.00;102281.52;105371;1253;74705;-60
2023/01/11 10:37:11;;;;;;;7.80;2.20;;;;;;;-6.57;100.00;102293.47;105007;1258;63586;-61
2023/01/11 10:40:30;;;;;;;8.20;3.50;;;;;;;-6.64;100.00;102289.86;105817;1259;62763;-62
2023/01/11 10:43:02;;;;;;;9.60;2.80;;;;;;;-6.60;100.00;102288.29;105645;1257;74554;-57
2023/01/11 10:45:49;;;;;;;7.30;2.60;;;;;;;-6.57;100.00;102287.55;105266;1260;69553;-60
2023/01/11 10:48:24;;;;;;;7.40;2.20;;;;;;;-6.62;100.00;102286.45;105307;1256;73312;-59
2023/01/11 10:51:26;;;;;;;6.30;2.30;;;;;;;-6.69;100.00;102290.61;105346;1253;64036;-62
2023/01/11 10:53:58;;;;;;;6.70;2.00;;;;;;;-6.75;100.00;102286.98;105211;1258;62698;-59
2023/01/11 10:56:38;;;;;;;7.50;2.60;;;;;;;-6.78;100.00;102286.52;105236;1254;76225;-59
2023/01/11 10:59:25;;;;;;;5.50;2.50;;;;;;;-6.77;100.00;102285.15;105691;1253;69583;-60
2023/01/11 11:02:33;;;;;;;6.40;2.40;;;;;;;-6.71;100.00;102282.54;105157;1253;75783;-60
2023/01/11 11:05:04;;;;;;;6.70;2.50;;;;;;;-6.67;100.00;102273.66;105319;1258;63525;-62
2023/01/11 11:08:05;;;;;;;8.70;1.90;;;;;;;-6.66;100.00;102270.94;105304;1258;61191;-59
2023/01/11 11:10:42;;;;;;;5.10;1.80;;;;;;;-6.62;100.00;102279.52;105542;1253;75219;-62
2023/01/11 11:13:15;;;;;;;8.60;2.60;;;;;;;-6.63;100.00;102280.38;105171;1253;68238;-61
2023/01/11 11:16:22;;;;;;;7.80;3.20;;;;;;;-6.72;100.00;102274.43;105298;1254;74091;-61
2023/01/11 11:18:54;;;;;;;6.30;2.10;;;;;;;-6.78;100.00;102267.08;105367;1253;64643;-60
2023/01/11 11:21:28;;;;;;;7.10;2.20;;;;;;;-6.81;100.00;102260.02;105516;1253;62843;-60
2023/01/11 11:24:02;;;;;;;7.00;3.20;;;;;;;-6.84;100.00;102264.80;105655;1257;76292;-59
2023/01/11 11:26:37;;;;;;;7.00;2.90;;;;;;;-6.86;100.00;102264.31;105504;1256;68506;-59
2023/01/11 11:29:09;;;;;;;8.80;3.00;;;;;;;-6.90;100.00;102257.77;105489;1257;75261;-59
2023/01/11 11:31:37;;;;;;;5.90;2.40;;;;;;;-6.91;100.00;102252.21;105664;1259;63549;-60
2023/01/11 11:34:12;;;;;;;5.80;2.00;;;;;;;-6.93;100.00;102252.92;105660;1253;60611;-59
2023/01/11 11:36:52;;;;;;;8.60;2.30;;;;;;;-6.99;100.00;102255.71;105245;1259;76176;-59
2023/01/11 11:39:29;;;;;;;10.50;3.00;;;;;;;-7.04;100.00;102248.86;105256;1258;69338;-59
2023/01/11 11:42:07;;;;;;;4.50;1.80;;;;;;;-7.05;100.00;102247.85;105307;1258;75628;-59
2023/01/11 11:44:34;;;;;;;5.40;2.50;;;;;;;-7.00;100.00;102237.64;105392;1253;64607;-58
2023/01/11 11:47:02;;;;;;;5.80;2.10;;;;;;;-6.98;100.00;102247.25;105302;1253;62242;-58
2023/01/11 11:49:31;;;;;;;5.90;2.10;;;;;;;-7.03;100.00;102242.09;105518;1253;75213;-64
2023/01/11 11:51:59;;;;;;;5.30;2.10;;;;;;;-7.10;100.00;102258.06;105223;1258;69234;-58
2023/01/11 11:54:31;;;;;;;4.90;1.90;;;;;;;-7.20;100.00;102246.02;105185;1253;74860;-58
2023/01/11 11:57:10;;;;;;;6.60;2.40;;;;;;;-7.28;100.00;102247.66;105120;1253;64196;-64